sensor_id;sensor_type;location;lat;lon;timestamp;P1;durP1;ratioP1;P2;durP2;ratioP2
43327;SDS011;28923;45.412;10.852;2023-07-13T04:30:54;1.27;;;0.68;;
43327;SDS011;28923;45.412;10.852;2023-07-13T04:33:20;2.42;;;0.95;;
43327;SDS011;28923;45.412;10.852;2023-07-13T04:35:49;1.95;;;1.20;;
43327;SDS011;28923;45.412;10.852;2023-07-13T04:38:15;3.10;;;1.02;;
43327;SDS011;28923;45.412;10.852;2023-07-13T04:40:47;2.25;;;1.00;;
43327;SDS011;28923;45.412;10.852;2023-07-13T04:43:12;3.67;;;1.27;;
43327;SDS011;28923;45.412;10.852;2023-07-13T04:45:37;4.20;;;1.20;;
43327;SDS011;28923;45.412;10.852;2023-07-13T04:48:03;4.97;;;1.35;;
43327;SDS011;28923;45.412;10.852;2023-07-13T04:50:28;2.10;;;1.23;;
43327;SDS011;28923;45.412;10.852;2023-07-13T04:52:54;4.13;;;1.25;;
43327;SDS011;28923;45.412;10.852;2023-07-13T04:55:19;4.82;;;1.10;;
43327;SDS011;28923;45.412;10.852;2023-07-13T04:57:45;4.43;;;1.45;;
43327;SDS011;28923;45.412;10.852;2023-07-13T05:00:11;4.63;;;1.08;;
43327;SDS011;28923;45.412;10.852;2023-07-13T05:02:37;2.33;;;1.15;;
43327;SDS011;28923;45.412;10.852;2023-07-13T05:05:03;7.32;;;4.82;;
43327;SDS011;28923;45.412;10.852;2023-07-13T05:07:28;4.63;;;2.05;;
43327;SDS011;28923;45.412;10.852;2023-07-13T05:09:54;2.47;;;2.00;;
43327;SDS011;28923;45.412;10.852;2023-07-13T05:12:19;3.20;;;1.98;;
43327;SDS011;28923;45.412;10.852;2023-07-13T05:14:45;3.83;;;2.13;;
43327;SDS011;28923;45.412;10.852;2023-07-13T05:17:10;5.88;;;2.55;;
43327;SDS011;28923;45.412;10.852;2023-07-13T05:19:36;6.15;;;2.70;;
43327;SDS011;28923;45.412;10.852;2023-07-13T05:22:01;5.25;;;2.78;;
43327;SDS011;28923;45.412;10.852;2023-07-13T05:24:28;6.95;;;3.10;;
43327;SDS011;28923;45.412;10.852;2023-07-13T05:26:55;5.78;;;3.03;;
43327;SDS011;28923;45.412;10.852;2023-07-13T05:29:21;9.07;;;2.90;;
43327;SDS011;28923;45.412;10.852;2023-07-13T05:31:49;8.18;;;3.03;;
43327;SDS011;28923;45.412;10.852;2023-07-13T05:34:15;8.15;;;2.70;;
43327;SDS011;28923;45.412;10.852;2023-07-13T05:36:41;5.13;;;2.35;;
43327;SDS011;28923;45.412;10.852;2023-07-13T05:39:07;5.82;;;2.00;;
43327;SDS011;28923;45.412;10.852;2023-07-13T05:41:32;6.18;;;1.88;;
43327;SDS011;28923;45.412;10.852;2023-07-13T05:43:58;8.48;;;1.80;;
43327;SDS011;28923;45.412;10.852;2023-07-13T05:46:24;4.53;;;1.73;;
43327;SDS011;28923;45.412;10.852;2023-07-13T05:48:49;4.35;;;1.58;;
43327;SDS011;28923;45.412;10.852;2023-07-13T05:51:14;4.65;;;1.50;;
43327;SDS011;28923;45.412;10.852;2023-07-13T05:53:40;4.10;;;1.63;;
43327;SDS011;28923;45.412;10.852;2023-07-13T05:56:05;8.48;;;1.50;;
43327;SDS011;28923;45.412;10.852;2023-07-13T05:58:31;4.68;;;1.45;;
43327;SDS011;28923;45.412;10.852;2023-07-13T06:01:03;3.60;;;1.15;;
43327;SDS011;28923;45.412;10.852;2023-07-13T06:03:29;4.80;;;1.50;;
43327;SDS011;28923;45.412;10.852;2023-07-13T06:05:55;3.95;;;1.40;;
43327;SDS011;28923;45.412;10.852;2023-07-13T06:08:20;4.60;;;1.60;;
43327;SDS011;28923;45.412;10.852;2023-07-13T06:10:46;2.78;;;1.50;;
43327;SDS011;28923;45.412;10.852;2023-07-13T06:13:11;5.95;;;1.75;;
43327;SDS011;28923;45.412;10.852;2023-07-13T06:15:36;2.30;;;1.00;;
43327;SDS011;28923;45.412;10.852;2023-07-13T06:18:02;4.32;;;1.42;;
43327;SDS011;28923;45.412;10.852;2023-07-13T06:20:28;2.70;;;1.35;;
43327;SDS011;28923;45.412;10.852;2023-07-13T06:22:54;5.55;;;1.40;;
43327;SDS011;28923;45.412;10.852;2023-07-13T06:25:19;1.80;;;1.25;;
43327;SDS011;28923;45.412;10.852;2023-07-13T06:27:44;2.30;;;1.30;;
43327;SDS011;28923;45.412;10.852;2023-07-13T06:30:10;4.93;;;1.50;;
43327;SDS011;28923;45.412;10.852;2023-07-13T06:32:36;3.90;;;1.40;;
43327;SDS011;28923;45.412;10.852;2023-07-13T06:35:01;2.33;;;1.40;;
43327;SDS011;28923;45.412;10.852;2023-07-13T06:37:26;3.35;;;1.58;;
43327;SDS011;28923;45.412;10.852;2023-07-13T06:39:52;4.60;;;1.90;;
43327;SDS011;28923;45.412;10.852;2023-07-13T06:42:18;6.35;;;2.58;;
43327;SDS011;28923;45.412;10.852;2023-07-13T06:44:44;8.65;;;2.10;;
43327;SDS011;28923;45.412;10.852;2023-07-13T06:47:09;5.90;;;1.83;;
43327;SDS011;28923;45.412;10.852;2023-07-13T06:49:35;6.10;;;1.90;;
43327;SDS011;28923;45.412;10.852;2023-07-13T06:52:00;5.28;;;1.85;;
43327;SDS011;28923;45.412;10.852;2023-07-13T06:54:25;7.47;;;1.75;;
43327;SDS011;28923;45.412;10.852;2023-07-13T06:56:51;4.63;;;1.75;;
43327;SDS011;28923;45.412;10.852;2023-07-13T06:59:17;8.18;;;1.70;;
43327;SDS011;28923;45.412;10.852;2023-07-13T07:01:42;3.50;;;1.50;;
43327;SDS011;28923;45.412;10.852;2023-07-13T07:04:07;5.32;;;1.42;;
43327;SDS011;28923;45.412;10.852;2023-07-13T07:06:33;4.18;;;1.40;;
43327;SDS011;28923;45.412;10.852;2023-07-13T07:08:59;4.85;;;1.33;;
43327;SDS011;28923;45.412;10.852;2023-07-13T07:11:24;3.10;;;1.48;;
43327;SDS011;28923;45.412;10.852;2023-07-13T07:13:51;3.30;;;1.40;;
43327;SDS011;28923;45.412;10.852;2023-07-13T07:16:16;7.13;;;1.50;;
43327;SDS011;28923;45.412;10.852;2023-07-13T07:18:42;6.20;;;1.38;;
43327;SDS011;28923;45.412;10.852;2023-07-13T07:21:07;4.18;;;1.40;;
43327;SDS011;28923;45.412;10.852;2023-07-13T07:23:33;3.65;;;1.23;;
43327;SDS011;28923;45.412;10.852;2023-07-13T07:25:58;3.63;;;1.73;;
43327;SDS011;28923;45.412;10.852;2023-07-13T07:28:23;4.15;;;1.45;;
43327;SDS011;28923;45.412;10.852;2023-07-13T07:30:51;4.60;;;1.50;;
43327;SDS011;28923;45.412;10.852;2023-07-13T07:33:17;2.83;;;1.00;;
43327;SDS011;28923;45.412;10.852;2023-07-13T07:35:42;1.70;;;1.20;;
43327;SDS011;28923;45.412;10.852;2023-07-13T07:38:08;4.28;;;1.35;;
43327;SDS011;28923;45.412;10.852;2023-07-13T07:40:37;5.47;;;1.27;;
43327;SDS011;28923;45.412;10.852;2023-07-13T07:43:03;3.58;;;1.38;;
43327;SDS011;28923;45.412;10.852;2023-07-13T07:45:29;4.15;;;1.50;;
43327;SDS011;28923;45.412;10.852;2023-07-13T07:47:54;3.33;;;1.23;;
43327;SDS011;28923;45.412;10.852;2023-07-13T07:50:24;1.42;;;1.00;;
43327;SDS011;28923;45.412;10.852;2023-07-13T07:52:49;2.70;;;1.20;;
43327;SDS011;28923;45.412;10.852;2023-07-13T07:55:15;2.22;;;1.20;;
43327;SDS011;28923;45.412;10.852;2023-07-13T07:57:40;1.67;;;1.05;;
43327;SDS011;28923;45.412;10.852;2023-07-13T08:00:06;4.60;;;1.27;;
43327;SDS011;28923;45.412;10.852;2023-07-13T08:02:39;7.93;;;1.20;;
43327;SDS011;28923;45.412;10.852;2023-07-13T08:05:06;2.80;;;1.38;;
43327;SDS011;28923;45.412;10.852;2023-07-13T08:07:32;1.60;;;1.00;;
43327;SDS011;28923;45.412;10.852;2023-07-13T08:09:57;2.97;;;1.48;;
43327;SDS011;28923;45.412;10.852;2023-07-13T08:12:22;1.88;;;1.10;;
43327;SDS011;28923;45.412;10.852;2023-07-13T08:14:51;3.53;;;1.00;;
43327;SDS011;28923;45.412;10.852;2023-07-13T08:17:19;2.63;;;1.20;;
43327;SDS011;28923;45.412;10.852;2023-07-13T08:19:44;1.42;;;0.95;;
43327;SDS011;28923;45.412;10.852;2023-07-13T08:22:10;1.48;;;1.20;;
43327;SDS011;28923;45.412;10.852;2023-07-13T08:24:35;3.92;;;1.20;;
43327;SDS011;28923;45.412;10.852;2023-07-13T08:27:00;3.20;;;1.20;;
43327;SDS011;28923;45.412;10.852;2023-07-13T08:29:26;2.38;;;1.23;;
43327;SDS011;28923;45.412;10.852;2023-07-13T08:31:51;4.00;;;1.15;;
43327;SDS011;28923;45.412;10.852;2023-07-13T08:34:16;1.58;;;0.93;;
43327;SDS011;28923;45.412;10.852;2023-07-13T08:36:42;3.58;;;0.95;;
43327;SDS011;28923;45.412;10.852;2023-07-13T08:39:07;1.17;;;0.80;;
43327;SDS011;28923;45.412;10.852;2023-07-13T08:41:33;2.63;;;0.98;;
43327;SDS011;28923;45.412;10.852;2023-07-13T08:43:59;2.78;;;1.20;;
43327;SDS011;28923;45.412;10.852;2023-07-13T08:46:33;4.93;;;1.42;;
43327;SDS011;28923;45.412;10.852;2023-07-13T08:49:02;3.67;;;1.48;;
43327;SDS011;28923;45.412;10.852;2023-07-13T08:53:58;5.95;;;1.70;;
43327;SDS011;28923;45.412;10.852;2023-07-13T08:56:25;3.10;;;1.73;;
43327;SDS011;28923;45.412;10.852;2023-07-13T08:58:54;3.65;;;1.50;;
43327;SDS011;28923;45.412;10.852;2023-07-13T09:01:31;6.10;;;1.60;;
43327;SDS011;28923;45.412;10.852;2023-07-13T09:04:18;3.50;;;1.48;;
43327;SDS011;28923;45.412;10.852;2023-07-13T09:07:02;5.78;;;1.52;;
43327;SDS011;28923;45.412;10.852;2023-07-13T09:14:47;3.28;;;1.77;;
43327;SDS011;28923;45.412;10.852;2023-07-13T09:17:24;5.40;;;1.58;;
43327;SDS011;28923;45.412;10.852;2023-07-13T09:19:56;5.95;;;1.60;;
43327;SDS011;28923;45.412;10.852;2023-07-13T09:22:22;5.10;;;1.50;;
43327;SDS011;28923;45.412;10.852;2023-07-13T09:24:50;4.70;;;1.73;;
43327;SDS011;28923;45.412;10.852;2023-07-13T09:27:19;2.70;;;1.30;;
43327;SDS011;28923;45.412;10.852;2023-07-13T09:29:48;2.85;;;1.30;;
43327;SDS011;28923;45.412;10.852;2023-07-13T09:32:14;3.00;;;1.30;;
43327;SDS011;28923;45.412;10.852;2023-07-13T09:34:43;3.67;;;1.40;;
43327;SDS011;28923;45.412;10.852;2023-07-13T09:37:14;3.10;;;1.40;;
43327;SDS011;28923;45.412;10.852;2023-07-13T09:39:40;4.90;;;1.33;;
43327;SDS011;28923;45.412;10.852;2023-07-13T09:45:00;3.95;;;1.20;;
43327;SDS011;28923;45.412;10.852;2023-07-13T09:47:32;2.78;;;1.30;;
43327;SDS011;28923;45.412;10.852;2023-07-13T09:52:23;3.72;;;0.85;;
43327;SDS011;28923;45.412;10.852;2023-07-13T09:54:50;1.65;;;0.93;;
43327;SDS011;28923;45.412;10.852;2023-07-13T09:57:17;3.10;;;1.38;;
43327;SDS011;28923;45.412;10.852;2023-07-13T09:59:43;6.40;;;1.30;;
43327;SDS011;28923;45.412;10.852;2023-07-13T10:02:34;3.08;;;1.15;;
43327;SDS011;28923;45.412;10.852;2023-07-13T10:05:03;2.03;;;1.00;;
43327;SDS011;28923;45.412;10.852;2023-07-13T10:07:30;2.47;;;1.20;;
43327;SDS011;28923;45.412;10.852;2023-07-13T10:09:56;2.17;;;1.00;;
43327;SDS011;28923;45.412;10.852;2023-07-13T10:12:22;2.75;;;1.20;;
43327;SDS011;28923;45.412;10.852;2023-07-13T10:14:50;2.17;;;0.80;;
43327;SDS011;28923;45.412;10.852;2023-07-13T10:17:16;2.10;;;0.90;;
43327;SDS011;28923;45.412;10.852;2023-07-13T10:19:43;2.78;;;0.90;;
43327;SDS011;28923;45.412;10.852;2023-07-13T10:22:29;2.05;;;1.00;;
43327;SDS011;28923;45.412;10.852;2023-07-13T10:24:57;2.20;;;1.10;;
43327;SDS011;28923;45.412;10.852;2023-07-13T10:27:27;1.65;;;0.70;;
43327;SDS011;28923;45.412;10.852;2023-07-13T10:29:56;1.55;;;0.70;;
43327;SDS011;28923;45.412;10.852;2023-07-13T10:32:24;1.13;;;0.82;;
43327;SDS011;28923;45.412;10.852;2023-07-13T10:34:49;3.22;;;1.00;;
43327;SDS011;28923;45.412;10.852;2023-07-13T10:37:27;2.00;;;0.75;;
43327;SDS011;28923;45.412;10.852;2023-07-13T10:39:54;2.13;;;1.20;;
43327;SDS011;28923;45.412;10.852;2023-07-13T10:42:35;2.45;;;0.90;;
43327;SDS011;28923;45.412;10.852;2023-07-13T10:45:02;1.13;;;0.70;;
43327;SDS011;28923;45.412;10.852;2023-07-13T10:47:30;1.30;;;0.93;;
43327;SDS011;28923;45.412;10.852;2023-07-13T10:49:57;1.77;;;0.88;;
43327;SDS011;28923;45.412;10.852;2023-07-13T10:57:51;1.80;;;0.90;;
43327;SDS011;28923;45.412;10.852;2023-07-13T11:00:17;2.05;;;0.80;;
43327;SDS011;28923;45.412;10.852;2023-07-13T11:02:43;1.80;;;1.13;;
43327;SDS011;28923;45.412;10.852;2023-07-13T11:05:31;1.30;;;0.65;;
43327;SDS011;28923;45.412;10.852;2023-07-13T11:08:12;1.35;;;0.68;;
43327;SDS011;28923;45.412;10.852;2023-07-13T11:10:46;1.73;;;0.73;;
43327;SDS011;28923;45.412;10.852;2023-07-13T11:13:35;1.45;;;0.88;;
43327;SDS011;28923;45.412;10.852;2023-07-13T11:15:57;1.17;;;0.80;;
43327;SDS011;28923;45.412;10.852;2023-07-13T11:18:23;1.05;;;0.60;;
43327;SDS011;28923;45.412;10.852;2023-07-13T11:20:50;1.33;;;0.85;;
43327;SDS011;28923;45.412;10.852;2023-07-13T11:25:41;0.95;;;0.60;;
43327;SDS011;28923;45.412;10.852;2023-07-13T11:35:33;1.40;;;0.65;;
43327;SDS011;28923;45.412;10.852;2023-07-13T11:37:59;8.23;;;0.80;;
43327;SDS011;28923;45.412;10.852;2023-07-13T11:40:25;1.52;;;0.77;;
43327;SDS011;28923;45.412;10.852;2023-07-13T11:42:58;7.85;;;0.90;;
43327;SDS011;28923;45.412;10.852;2023-07-13T11:45:24;0.90;;;0.60;;
43327;SDS011;28923;45.412;10.852;2023-07-13T11:47:49;1.73;;;0.70;;
43327;SDS011;28923;45.412;10.852;2023-07-13T11:50:22;2.67;;;0.80;;
43327;SDS011;28923;45.412;10.852;2023-07-13T11:52:48;3.65;;;0.70;;
43327;SDS011;28923;45.412;10.852;2023-07-13T11:55:18;1.33;;;0.82;;
43327;SDS011;28923;45.412;10.852;2023-07-13T11:57:51;1.73;;;0.68;;
43327;SDS011;28923;45.412;10.852;2023-07-13T12:00:21;1.45;;;0.73;;
43327;SDS011;28923;45.412;10.852;2023-07-13T12:02:48;1.90;;;0.73;;
43327;SDS011;28923;45.412;10.852;2023-07-13T12:05:15;1.00;;;0.60;;
43327;SDS011;28923;45.412;10.852;2023-07-13T12:07:42;0.50;;;0.50;;
43327;SDS011;28923;45.412;10.852;2023-07-13T12:12:34;0.65;;;0.60;;
43327;SDS011;28923;45.412;10.852;2023-07-13T12:15:00;1.48;;;0.80;;
43327;SDS011;28923;45.412;10.852;2023-07-13T12:17:25;2.15;;;0.70;;
43327;SDS011;28923;45.412;10.852;2023-07-13T12:19:52;1.48;;;0.80;;
43327;SDS011;28923;45.412;10.852;2023-07-13T12:22:18;0.93;;;0.60;;
43327;SDS011;28923;45.412;10.852;2023-07-13T12:24:45;2.20;;;0.68;;
43327;SDS011;28923;45.412;10.852;2023-07-13T12:27:19;1.80;;;0.65;;
43327;SDS011;28923;45.412;10.852;2023-07-13T12:30:01;0.95;;;0.70;;
43327;SDS011;28923;45.412;10.852;2023-07-13T12:32:27;1.73;;;0.75;;
43327;SDS011;28923;45.412;10.852;2023-07-13T12:37:38;1.58;;;0.95;;
43327;SDS011;28923;45.412;10.852;2023-07-13T12:40:12;3.13;;;0.80;;
43327;SDS011;28923;45.412;10.852;2023-07-13T12:42:38;4.17;;;0.80;;
43327;SDS011;28923;45.412;10.852;2023-07-13T12:45:24;0.95;;;0.60;;
43327;SDS011;28923;45.412;10.852;2023-07-13T12:47:57;0.68;;;0.50;;
43327;SDS011;28923;45.412;10.852;2023-07-13T12:50:42;2.50;;;0.80;;
43327;SDS011;28923;45.412;10.852;2023-07-13T12:53:14;3.92;;;0.90;;
43327;SDS011;28923;45.412;10.852;2023-07-13T12:55:59;1.60;;;0.88;;
43327;SDS011;28923;45.412;10.852;2023-07-13T12:58:32;2.38;;;0.70;;
43327;SDS011;28923;45.412;10.852;2023-07-13T13:01:02;1.80;;;0.70;;
43327;SDS011;28923;45.412;10.852;2023-07-13T13:03:33;0.80;;;0.60;;
43327;SDS011;28923;45.412;10.852;2023-07-13T13:08:25;1.17;;;0.70;;
43327;SDS011;28923;45.412;10.852;2023-07-13T13:10:50;2.30;;;0.93;;
43327;SDS011;28923;45.412;10.852;2023-07-13T13:13:15;0.88;;;0.68;;
43327;SDS011;28923;45.412;10.852;2023-07-13T13:15:41;3.65;;;1.00;;
43327;SDS011;28923;45.412;10.852;2023-07-13T13:18:19;1.25;;;0.70;;
43327;SDS011;28923;45.412;10.852;2023-07-13T13:20:45;1.75;;;0.57;;
43327;SDS011;28923;45.412;10.852;2023-07-13T13:23:15;1.80;;;0.70;;
43327;SDS011;28923;45.412;10.852;2023-07-13T13:25:43;1.92;;;0.90;;
43327;SDS011;28923;45.412;10.852;2023-07-13T13:28:13;0.68;;;0.68;;
43327;SDS011;28923;45.412;10.852;2023-07-13T13:30:39;2.45;;;0.77;;
43327;SDS011;28923;45.412;10.852;2023-07-13T13:33:08;2.13;;;0.90;;
43327;SDS011;28923;45.412;10.852;2023-07-13T13:35:34;1.58;;;0.77;;
43327;SDS011;28923;45.412;10.852;2023-07-13T13:38:00;1.88;;;1.00;;
43327;SDS011;28923;45.412;10.852;2023-07-13T13:40:25;2.22;;;0.90;;
43327;SDS011;28923;45.412;10.852;2023-07-13T13:42:52;2.58;;;1.05;;
43327;SDS011;28923;45.412;10.852;2023-07-13T13:45:19;2.30;;;1.20;;
43327;SDS011;28923;45.412;10.852;2023-07-13T13:47:46;4.07;;;0.98;;
43327;SDS011;28923;45.412;10.852;2023-07-13T13:52:40;3.10;;;1.27;;
43327;SDS011;28923;45.412;10.852;2023-07-13T13:55:15;2.28;;;1.20;;
43327;SDS011;28923;45.412;10.852;2023-07-13T13:57:40;3.42;;;1.20;;
43327;SDS011;28923;45.412;10.852;2023-07-13T14:00:08;4.18;;;1.40;;
43327;SDS011;28923;45.412;10.852;2023-07-13T14:02:34;3.28;;;1.25;;
43327;SDS011;28923;45.412;10.852;2023-07-13T14:05:01;2.90;;;1.13;;
43327;SDS011;28923;45.412;10.852;2023-07-13T14:07:26;2.90;;;1.10;;
43327;SDS011;28923;45.412;10.852;2023-07-13T14:09:56;5.38;;;1.50;;
43327;SDS011;28923;45.412;10.852;2023-07-13T14:12:22;4.78;;;1.30;;
43327;SDS011;28923;45.412;10.852;2023-07-13T14:14:49;3.88;;;1.23;;
43327;SDS011;28923;45.412;10.852;2023-07-13T14:17:19;5.43;;;1.50;;
43327;SDS011;28923;45.412;10.852;2023-07-13T14:19:47;4.80;;;1.60;;
43327;SDS011;28923;45.412;10.852;2023-07-13T14:22:16;3.30;;;1.40;;
43327;SDS011;28923;45.412;10.852;2023-07-13T14:24:41;5.50;;;1.70;;
43327;SDS011;28923;45.412;10.852;2023-07-13T14:27:08;3.60;;;1.60;;
43327;SDS011;28923;45.412;10.852;2023-07-13T14:29:33;5.47;;;1.38;;
43327;SDS011;28923;45.412;10.852;2023-07-13T14:31:59;6.80;;;1.83;;
43327;SDS011;28923;45.412;10.852;2023-07-13T14:34:24;3.38;;;1.63;;
43327;SDS011;28923;45.412;10.852;2023-07-13T14:36:50;4.25;;;1.45;;
43327;SDS011;28923;45.412;10.852;2023-07-13T14:39:17;5.53;;;2.78;;
43327;SDS011;28923;45.412;10.852;2023-07-13T14:41:43;7.68;;;3.55;;
43327;SDS011;28923;45.412;10.852;2023-07-13T14:44:15;4.32;;;2.63;;
43327;SDS011;28923;45.412;10.852;2023-07-13T14:51:35;5.32;;;3.60;;
43327;SDS011;28923;45.412;10.852;2023-07-13T14:54:04;6.78;;;3.40;;
43327;SDS011;28923;45.412;10.852;2023-07-13T14:56:30;4.85;;;3.17;;
43327;SDS011;28923;45.412;10.852;2023-07-13T14:58:55;6.55;;;3.88;;
43327;SDS011;28923;45.412;10.852;2023-07-13T15:01:21;6.72;;;3.95;;
43327;SDS011;28923;45.412;10.852;2023-07-13T15:03:48;6.78;;;4.22;;
43327;SDS011;28923;45.412;10.852;2023-07-13T15:06:14;6.55;;;4.20;;
43327;SDS011;28923;45.412;10.852;2023-07-13T15:08:39;5.82;;;3.97;;
43327;SDS011;28923;45.412;10.852;2023-07-13T15:11:06;6.45;;;3.95;;
43327;SDS011;28923;45.412;10.852;2023-07-13T15:13:32;6.25;;;4.13;;
43327;SDS011;28923;45.412;10.852;2023-07-13T15:15:58;9.73;;;5.40;;
43327;SDS011;28923;45.412;10.852;2023-07-13T15:18:23;10.85;;;6.43;;
43327;SDS011;28923;45.412;10.852;2023-07-13T15:20:50;10.68;;;6.60;;
43327;SDS011;28923;45.412;10.852;2023-07-13T15:23:17;8.65;;;7.22;;
43327;SDS011;28923;45.412;10.852;2023-07-13T15:25:43;9.25;;;7.03;;
43327;SDS011;28923;45.412;10.852;2023-07-13T15:28:09;10.15;;;7.68;;
43327;SDS011;28923;45.412;10.852;2023-07-13T15:30:45;10.68;;;7.15;;
43327;SDS011;28923;45.412;10.852;2023-07-13T15:33:15;10.43;;;7.07;;
43327;SDS011;28923;45.412;10.852;2023-07-13T15:35:42;10.63;;;7.10;;
43327;SDS011;28923;45.412;10.852;2023-07-13T15:43:42;8.23;;;6.53;;
43327;SDS011;28923;45.412;10.852;2023-07-13T15:46:08;9.85;;;6.10;;
43327;SDS011;28923;45.412;10.852;2023-07-13T15:48:34;8.52;;;6.65;;
43327;SDS011;28923;45.412;10.852;2023-07-13T15:51:01;8.20;;;6.30;;
43327;SDS011;28923;45.412;10.852;2023-07-13T15:53:30;9.50;;;5.72;;
43327;SDS011;28923;45.412;10.852;2023-07-13T15:55:57;8.05;;;6.18;;
43327;SDS011;28923;45.412;10.852;2023-07-13T15:58:23;8.75;;;5.70;;
43327;SDS011;28923;45.412;10.852;2023-07-13T16:00:50;6.60;;;5.40;;
43327;SDS011;28923;45.412;10.852;2023-07-13T16:03:16;7.80;;;5.50;;
43327;SDS011;28923;45.412;10.852;2023-07-13T16:05:41;7.03;;;5.40;;
43327;SDS011;28923;45.412;10.852;2023-07-13T16:08:09;9.48;;;6.00;;
43327;SDS011;28923;45.412;10.852;2023-07-13T16:10:40;6.25;;;5.10;;
43327;SDS011;28923;45.412;10.852;2023-07-13T16:13:09;10.57;;;5.35;;
43327;SDS011;28923;45.412;10.852;2023-07-13T16:15:39;9.02;;;5.53;;
43327;SDS011;28923;45.412;10.852;2023-07-13T16:18:12;9.60;;;5.05;;
43327;SDS011;28923;45.412;10.852;2023-07-13T16:20:38;6.28;;;5.30;;
43327;SDS011;28923;45.412;10.852;2023-07-13T16:23:04;11.15;;;5.45;;
43327;SDS011;28923;45.412;10.852;2023-07-13T16:25:31;6.25;;;5.10;;
43327;SDS011;28923;45.412;10.852;2023-07-13T16:27:58;10.30;;;5.03;;
43327;SDS011;28923;45.412;10.852;2023-07-13T16:30:27;7.30;;;4.68;;
43327;SDS011;28923;45.412;10.852;2023-07-13T16:32:58;13.60;;;5.55;;
43327;SDS011;28923;45.412;10.852;2023-07-13T16:35:29;17.38;;;6.30;;
43327;SDS011;28923;45.412;10.852;2023-07-13T16:37:55;21.15;;;7.38;;
43327;SDS011;28923;45.412;10.852;2023-07-13T16:40:28;14.45;;;6.72;;
43327;SDS011;28923;45.412;10.852;2023-07-13T16:42:55;17.20;;;6.93;;
43327;SDS011;28923;45.412;10.852;2023-07-13T16:45:22;13.90;;;6.50;;
43327;SDS011;28923;45.412;10.852;2023-07-13T16:47:52;10.95;;;5.25;;
43327;SDS011;28923;45.412;10.852;2023-07-13T16:50:19;11.63;;;5.65;;
43327;SDS011;28923;45.412;10.852;2023-07-13T16:52:45;10.60;;;5.80;;
43327;SDS011;28923;45.412;10.852;2023-07-13T16:55:12;10.65;;;5.70;;
43327;SDS011;28923;45.412;10.852;2023-07-13T16:57:42;10.75;;;5.40;;
43327;SDS011;28923;45.412;10.852;2023-07-13T17:00:19;11.88;;;5.38;;
43327;SDS011;28923;45.412;10.852;2023-07-13T17:02:49;9.75;;;4.85;;
43327;SDS011;28923;45.412;10.852;2023-07-13T17:05:16;11.43;;;4.90;;
43327;SDS011;28923;45.412;10.852;2023-07-13T17:07:42;9.38;;;4.88;;
43327;SDS011;28923;45.412;10.852;2023-07-13T17:10:18;9.60;;;4.72;;
43327;SDS011;28923;45.412;10.852;2023-07-13T17:12:45;8.70;;;4.68;;
43327;SDS011;28923;45.412;10.852;2023-07-13T17:15:11;8.23;;;4.88;;
43327;SDS011;28923;45.412;10.852;2023-07-13T17:17:38;6.70;;;4.45;;
43327;SDS011;28923;45.412;10.852;2023-07-13T17:20:19;11.13;;;4.55;;
43327;SDS011;28923;45.412;10.852;2023-07-13T17:22:47;10.65;;;4.80;;
43327;SDS011;28923;45.412;10.852;2023-07-13T17:25:13;11.02;;;4.47;;
43327;SDS011;28923;45.412;10.852;2023-07-13T17:27:38;10.60;;;4.50;;
43327;SDS011;28923;45.412;10.852;2023-07-13T17:30:04;9.02;;;4.43;;
43327;SDS011;28923;45.412;10.852;2023-07-13T17:32:38;12.30;;;4.70;;
43327;SDS011;28923;45.412;10.852;2023-07-13T17:35:12;8.63;;;4.10;;
43327;SDS011;28923;45.412;10.852;2023-07-13T17:37:39;7.13;;;4.03;;
43327;SDS011;28923;45.412;10.852;2023-07-13T17:40:09;7.22;;;4.10;;
43327;SDS011;28923;45.412;10.852;2023-07-13T17:42:37;7.60;;;3.60;;
43327;SDS011;28923;45.412;10.852;2023-07-13T17:45:03;7.13;;;4.22;;
43327;SDS011;28923;45.412;10.852;2023-07-13T17:47:30;7.63;;;3.35;;
43327;SDS011;28923;45.412;10.852;2023-07-13T17:49:56;8.13;;;3.30;;
43327;SDS011;28923;45.412;10.852;2023-07-13T17:52:22;5.65;;;3.45;;
43327;SDS011;28923;45.412;10.852;2023-07-13T17:54:53;6.15;;;3.20;;
43327;SDS011;28923;45.412;10.852;2023-07-13T17:57:19;5.00;;;3.05;;
43327;SDS011;28923;45.412;10.852;2023-07-13T17:59:44;5.50;;;3.40;;
43327;SDS011;28923;45.412;10.852;2023-07-13T18:02:14;8.05;;;3.35;;
43327;SDS011;28923;45.412;10.852;2023-07-13T18:04:40;6.68;;;2.97;;
43327;SDS011;28923;45.412;10.852;2023-07-13T18:07:08;5.20;;;2.72;;
43327;SDS011;28923;45.412;10.852;2023-07-13T18:09:37;4.57;;;2.85;;
43327;SDS011;28923;45.412;10.852;2023-07-13T18:12:03;6.00;;;2.83;;
43327;SDS011;28923;45.412;10.852;2023-07-13T18:14:28;6.53;;;2.67;;
43327;SDS011;28923;45.412;10.852;2023-07-13T18:16:56;4.05;;;2.50;;
43327;SDS011;28923;45.412;10.852;2023-07-13T18:19:44;7.47;;;2.90;;
43327;SDS011;28923;45.412;10.852;2023-07-13T18:22:16;4.55;;;2.58;;
43327;SDS011;28923;45.412;10.852;2023-07-13T18:24:42;6.57;;;2.83;;
43327;SDS011;28923;45.412;10.852;2023-07-13T18:27:07;5.97;;;2.63;;
43327;SDS011;28923;45.412;10.852;2023-07-13T18:29:33;6.70;;;2.50;;
43327;SDS011;28923;45.412;10.852;2023-07-13T18:31:59;3.00;;;2.35;;
43327;SDS011;28923;45.412;10.852;2023-07-13T18:34:28;5.85;;;2.42;;
43327;SDS011;28923;45.412;10.852;2023-07-13T18:36:54;5.15;;;2.70;;
43327;SDS011;28923;45.412;10.852;2023-07-13T18:39:20;3.92;;;2.65;;
43327;SDS011;28923;45.412;10.852;2023-07-13T18:41:45;4.80;;;2.53;;
43327;SDS011;28923;45.412;10.852;2023-07-13T18:44:11;7.20;;;2.67;;
43327;SDS011;28923;45.412;10.852;2023-07-13T18:46:40;5.20;;;2.60;;
43327;SDS011;28923;45.412;10.852;2023-07-13T18:49:05;3.97;;;2.42;;
43327;SDS011;28923;45.412;10.852;2023-07-13T18:51:30;3.85;;;2.40;;
43327;SDS011;28923;45.412;10.852;2023-07-13T18:53:56;3.33;;;2.10;;
43327;SDS011;28923;45.412;10.852;2023-07-13T18:56:22;4.43;;;1.92;;
43327;SDS011;28923;45.412;10.852;2023-07-13T18:58:48;4.70;;;2.60;;
43327;SDS011;28923;45.412;10.852;2023-07-13T19:03:45;3.33;;;2.43;;
43327;SDS011;28923;45.412;10.852;2023-07-13T19:06:11;5.18;;;2.22;;
43327;SDS011;28923;45.412;10.852;2023-07-13T19:08:38;3.80;;;2.30;;
43327;SDS011;28923;45.412;10.852;2023-07-13T19:11:08;3.40;;;2.15;;
43327;SDS011;28923;45.412;10.852;2023-07-13T19:13:34;4.30;;;2.05;;
43327;SDS011;28923;45.412;10.852;2023-07-13T19:16:01;5.85;;;2.35;;
43327;SDS011;28923;45.412;10.852;2023-07-13T19:18:26;3.25;;;1.98;;
43327;SDS011;28923;45.412;10.852;2023-07-13T19:20:55;6.13;;;2.05;;
43327;SDS011;28923;45.412;10.852;2023-07-13T19:23:31;4.72;;;2.10;;
43327;SDS011;28923;45.412;10.852;2023-07-13T19:26:01;3.30;;;1.55;;
43327;SDS011;28923;45.412;10.852;2023-07-13T19:30:59;4.00;;;1.83;;
43327;SDS011;28923;45.412;10.852;2023-07-13T19:33:25;2.78;;;1.50;;
43327;SDS011;28923;45.412;10.852;2023-07-13T19:35:51;3.45;;;1.50;;
43327;SDS011;28923;45.412;10.852;2023-07-13T19:38:17;2.65;;;1.60;;
43327;SDS011;28923;45.412;10.852;2023-07-13T19:40:44;2.38;;;1.60;;
43327;SDS011;28923;45.412;10.852;2023-07-13T19:43:12;4.45;;;2.03;;
43327;SDS011;28923;45.412;10.852;2023-07-13T19:45:38;2.38;;;1.75;;
43327;SDS011;28923;45.412;10.852;2023-07-13T19:48:03;3.13;;;1.52;;
43327;SDS011;28923;45.412;10.852;2023-07-13T19:50:29;1.98;;;1.40;;
43327;SDS011;28923;45.412;10.852;2023-07-13T19:52:55;2.42;;;1.38;;
43327;SDS011;28923;45.412;10.852;2023-07-13T19:55:21;3.25;;;1.40;;
43327;SDS011;28923;45.412;10.852;2023-07-13T19:57:48;2.13;;;1.50;;
43327;SDS011;28923;45.412;10.852;2023-07-13T20:00:15;1.50;;;1.20;;